Time;durP1;ratioP1;P1;durP2;ratioP2;P2;SDS_P1;SDS_P2;PMS_P1;PMS_P2;Temp;Humidity;BMP_temperature;BMP_pressure;BME280_temperature;BME280_humidity;BME280_pressure;Samples;Min_cycle;Max_cycle;Signal;HPM_P1;HPM_P2
2022/06/26 00:01:15;;;;;;;1.47;1.33;;;;;;;23.87;45.48;100969.34;4952620;28;98989;-85
2022/06/26 00:03:40;;;;;;;1.70;1.60;;;;;;;23.80;45.50;100952.00;4965478;28;96889;-85
2022/06/26 00:06:06;;;;;;;1.73;1.63;;;;;;;23.77;45.53;100953.13;4957439;28;97826;-85
2022/06/26 00:08:31;;;;;;;1.60;1.50;;;;;;;23.76;45.69;100953.72;4960611;28;98984;-85
2022/06/26 00:10:56;;;;;;;2.20;2.03;;;;;;;23.73;45.71;100960.50;4966099;28;98665;-85
2022/06/26 00:13:22;;;;;;;1.67;1.57;;;;;;;23.66;45.92;101001.38;4962720;28;97283;-87
2022/06/26 00:15:47;;;;;;;1.70;1.60;;;;;;;23.61;45.75;100954.59;4944986;28;96875;-86
2022/06/26 00:18:13;;;;;;;2.90;1.70;;;;;;;23.58;45.92;100961.38;4949947;28;97655;-86
2022/06/26 00:20:39;;;;;;;1.70;1.60;;;;;;;23.55;46.00;100968.16;4962741;28;99019;-85
2022/06/26 00:23:05;;;;;;;2.03;1.93;;;;;;;23.48;46.28;100957.72;4956042;28;97278;-86
2022/06/26 00:25:30;;;;;;;2.23;1.47;;;;;;;23.46;46.40;100980.03;4966007;28;96993;-85
2022/06/26 00:28:05;;;;;;;1.70;1.60;;;;;;;23.43;46.44;100995.25;4959185;28;98408;-85
2022/06/26 00:30:30;;;;;;;1.90;1.80;;;;;;;23.43;46.65;100961.53;4954910;28;99065;-85
2022/06/26 00:32:56;;;;;;;2.20;1.87;;;;;;;23.38;46.54;100965.31;4962409;28;97044;-86
2022/06/26 00:35:21;;;;;;;1.90;1.80;;;;;;;23.35;46.77;100960.84;4955960;28;104560;-85
2022/06/26 00:37:48;;;;;;;1.70;1.60;;;;;;;23.30;46.68;100978.66;4957781;28;97315;-84
2022/06/26 00:40:13;;;;;;;1.80;1.70;;;;;;;23.30;46.84;100970.22;4948715;28;99123;-86
2022/06/26 00:42:39;;;;;;;1.77;1.67;;;;;;;23.27;46.82;100993.81;4937273;28;97120;-85
2022/06/26 00:45:05;;;;;;;2.27;2.17;;;;;;;23.23;46.84;100951.38;4958062;28;96825;-85
2022/06/26 00:47:31;;;;;;;2.73;1.80;;;;;;;23.17;46.98;100950.88;4960471;28;99776;-86
2022/06/26 00:49:57;;;;;;;2.47;2.27;;;;;;;23.09;47.06;100967.75;4962239;28;99064;-86
2022/06/26 00:52:23;;;;;;;2.00;1.90;;;;;;;23.09;47.20;100953.72;4957023;28;97126;-85
2022/06/26 00:54:50;;;;;;;2.00;1.90;;;;;;;23.07;47.25;100961.22;4953108;28;97064;-85
2022/06/26 00:57:16;;;;;;;5.37;2.20;;;;;;;22.98;47.29;100996.28;4955008;28;99059;-85
2022/06/26 00:59:42;;;;;;;1.73;1.63;;;;;;;23.04;47.44;100965.91;4955003;28;97955;-85
2022/06/26 01:02:07;;;;;;;2.10;2.00;;;;;;;23.03;47.44;100967.25;4959684;28;96947;-86
2022/06/26 01:04:33;;;;;;;2.07;1.97;;;;;;;23.02;47.39;100960.13;4970334;28;97839;-88
2022/06/26 01:06:59;;;;;;;2.00;1.90;;;;;;;23.00;47.43;100959.22;4974440;28;96742;-88
2022/06/26 01:09:25;;;;;;;2.83;2.07;;;;;;;23.00;47.45;100962.78;4973586;28;98864;-86
2022/06/26 01:11:51;;;;;;;1.73;1.63;;;;;;;22.95;47.63;100958.16;4976154;28;96841;-85
2022/06/26 01:14:17;;;;;;;2.23;2.00;;;;;;;22.87;47.78;100960.25;4970245;28;96889;-85
2022/06/26 01:16:43;;;;;;;1.97;1.87;;;;;;;22.82;47.91;100964.03;4953250;28;99814;-86
2022/06/26 01:19:10;;;;;;;4.20;1.90;;;;;;;22.75;48.02;100973.22;4954359;28;97370;-85
2022/06/26 01:21:36;;;;;;;2.53;2.40;;;;;;;22.76;48.15;100962.75;4960516;28;97116;-86
2022/06/26 01:24:02;;;;;;;2.13;2.03;;;;;;;22.74;48.17;100962.56;4953437;28;97536;-85
2022/06/26 01:26:29;;;;;;;2.30;2.20;;;;;;;22.73;48.09;100970.25;4961232;28;99436;-85
2022/06/26 01:28:55;;;;;;;2.23;2.13;;;;;;;22.70;48.13;100977.00;4963935;28;102873;-86
2022/06/26 01:31:20;;;;;;;2.20;2.10;;;;;;;22.66;48.32;100993.47;4949464;28;97369;-85
2022/06/26 01:33:49;;;;;;;2.20;2.10;;;;;;;22.63;48.49;100974.25;4976836;28;97496;-87
2022/06/26 01:36:15;;;;;;;2.50;2.30;;;;;;;22.62;48.29;100972.75;4954894;28;102205;-86
2022/06/26 01:38:41;;;;;;;1.70;1.63;;;;;;;22.58;48.37;100975.91;4956779;28;98890;-86
2022/06/26 01:41:07;;;;;;;2.63;2.43;;;;;;;22.59;48.47;100996.28;4960805;28;96824;-85
2022/06/26 01:43:35;;;;;;;2.40;2.30;;;;;;;22.56;48.56;100966.59;4958743;28;97218;-86
2022/06/26 01:46:02;;;;;;;2.53;2.33;;;;;;;22.48;48.67;100968.66;4960324;28;99761;-86
2022/06/26 01:48:29;;;;;;;2.17;2.00;;;;;;;22.46;48.74;100971.28;4960437;28;97411;-86
2022/06/26 01:50:56;;;;;;;2.27;2.17;;;;;;;22.44;48.61;100973.91;4957400;28;97233;-86
2022/06/26 01:53:22;;;;;;;4.70;2.20;;;;;;;22.39;48.87;100973.56;4954237;28;97283;-85
2022/06/26 01:55:47;;;;;;;2.50;2.40;;;;;;;22.32;49.06;100977.13;4953908;28;98969;-86
2022/06/26 01:58:13;;;;;;;2.50;2.30;;;;;;;22.20;49.08;100998.50;4956144;28;102336;-85
2022/06/26 02:00:41;;;;;;;1.97;1.87;;;;;;;22.24;49.23;100970.06;4953430;28;97420;-85
2022/06/26 02:03:07;;;;;;;2.00;1.90;;;;;;;22.18;49.36;100970.28;4953108;28;97409;-86
2022/06/26 02:05:33;;;;;;;2.37;2.27;;;;;;;22.14;49.34;100977.59;4957843;28;97880;-85
2022/06/26 02:07:58;;;;;;;2.10;2.00;;;;;;;22.12;49.38;100974.63;4955181;28;103626;-85
2022/06/26 02:15:56;;;;;;;2.40;2.30;;;;;;;22.11;49.50;100982.28;4954044;28;100377;-85
2022/06/26 02:18:21;;;;;;;2.17;2.07;;;;;;;22.13;49.48;100971.25;4956454;28;103135;-86
2022/06/26 02:20:47;;;;;;;3.00;2.30;;;;;;;22.13;49.55;100979.66;4956288;28;97122;-86
2022/06/26 02:23:13;;;;;;;2.70;2.47;;;;;;;22.11;49.57;100967.50;4961193;28;96683;-86
2022/06/26 02:25:39;;;;;;;2.17;2.07;;;;;;;22.09;49.82;100968.09;4962063;28;99445;-84
2022/06/26 02:28:05;;;;;;;1.93;1.83;;;;;;;22.13;49.77;100976.84;4958677;28;99779;-86
2022/06/26 02:30:31;;;;;;;2.27;2.00;;;;;;;22.17;49.82;100971.59;4954418;28;97052;-86
2022/06/26 02:32:56;;;;;;;2.00;1.90;;;;;;;22.18;49.73;100975.91;4954281;28;97435;-85
2022/06/26 02:35:23;;;;;;;2.47;2.37;;;;;;;22.19;49.83;100968.25;4958029;28;98932;-85
2022/06/26 02:37:49;;;;;;;2.10;2.00;;;;;;;22.16;49.96;100970.13;4953534;28;97670;-85
2022/06/26 02:40:14;;;;;;;2.03;1.93;;;;;;;22.14;49.96;100977.59;4959082;28;97425;-85
2022/06/26 02:42:40;;;;;;;2.33;2.23;;;;;;;22.14;49.97;100975.53;4961907;28;96978;-86
2022/06/26 02:45:06;;;;;;;1.90;1.80;;;;;;;22.13;49.99;100971.25;4964147;28;99360;-85
2022/06/26 02:47:32;;;;;;;3.83;2.07;;;;;;;22.11;50.08;101009.53;4963347;28;100412;-86
2022/06/26 02:49:57;;;;;;;1.83;1.73;;;;;;;22.14;50.27;101030.84;4963798;28;96857;-85
2022/06/26 02:52:22;;;;;;;2.43;1.93;;;;;;;22.16;50.12;100969.38;4957457;28;97379;-84
2022/06/26 02:54:48;;;;;;;1.87;1.77;;;;;;;22.14;50.13;100974.78;4960750;28;98135;-87
2022/06/26 02:57:13;;;;;;;2.00;1.90;;;;;;;22.16;50.12;101000.19;4963579;28;99443;-85
2022/06/26 02:59:39;;;;;;;2.63;2.43;;;;;;;22.15;50.23;100979.81;4960690;28;96923;-85
2022/06/26 03:02:04;;;;;;;4.80;2.53;;;;;;;22.15;50.20;101007.09;4962339;28;97008;-86
2022/06/26 03:04:30;;;;;;;2.10;2.00;;;;;;;22.12;50.15;100978.16;4956972;28;99239;-85
2022/06/26 03:06:55;;;;;;;2.70;2.50;;;;;;;22.07;50.30;101026.75;4959757;28;99618;-86
2022/06/26 03:09:21;;;;;;;1.90;1.80;;;;;;;22.11;50.22;100984.31;4959198;28;97086;-86
2022/06/26 03:11:46;;;;;;;2.20;2.10;;;;;;;22.10;50.51;100980.78;4960487;28;97002;-85
2022/06/26 03:14:11;;;;;;;2.57;2.43;;;;;;;22.10;50.35;101002.47;4960923;28;99254;-87
2022/06/26 03:16:36;;;;;;;2.10;2.00;;;;;;;22.05;50.51;100992.94;4959061;28;103746;-85
2022/06/26 03:19:02;;;;;;;2.13;2.03;;;;;;;21.99;50.50;100984.00;4957311;28;97375;-86
2022/06/26 03:21:28;;;;;;;2.03;1.93;;;;;;;21.96;50.70;101026.41;4962107;28;98534;-87
2022/06/26 03:24:03;;;;;;;2.33;2.23;;;;;;;21.98;50.72;101027.31;4958275;28;100222;-85
2022/06/26 03:26:33;;;;;;;2.40;2.20;;;;;;;21.99;50.73;100986.81;4961401;28;103372;-85
2022/06/26 03:28:59;;;;;;;2.17;2.07;;;;;;;21.97;50.75;100985.88;4956670;28;97272;-86
2022/06/26 03:31:25;;;;;;;2.60;2.50;;;;;;;21.89;50.51;101030.69;4963757;28;98925;-85
2022/06/26 03:33:51;;;;;;;2.20;2.10;;;;;;;21.89;51.02;101030.69;4957592;28;99057;-85
2022/06/26 03:36:16;;;;;;;2.20;2.10;;;;;;;21.94;50.79;100993.34;4959509;28;99023;-86
2022/06/26 03:38:42;;;;;;;3.07;2.30;;;;;;;21.90;50.95;100990.19;4954003;28;96782;-86
2022/06/26 03:41:09;;;;;;;2.07;1.97;;;;;;;21.92;50.93;101001.56;4962021;28;96996;-85
2022/06/26 03:43:34;;;;;;;5.43;2.03;;;;;;;21.82;51.02;100991.47;4961841;28;97161;-85
2022/06/26 03:46:00;;;;;;;2.10;2.00;;;;;;;21.84;50.95;101037.25;4966941;28;100652;-86
2022/06/26 03:48:25;;;;;;;2.30;2.20;;;;;;;21.90;50.76;101017.44;4981862;28;97373;-88
2022/06/26 03:50:50;;;;;;;2.17;2.07;;;;;;;21.86;51.04;100995.41;4981513;28;97372;-87
2022/06/26 03:53:16;;;;;;;2.30;2.20;;;;;;;21.87;51.03;100996.16;4984331;28;99267;-85
2022/06/26 03:55:41;;;;;;;2.50;2.37;;;;;;;21.81;51.05;101006.78;4983721;28;97310;-87
2022/06/26 03:58:07;;;;;;;2.27;2.07;;;;;;;21.78;51.17;101019.84;4984292;28;96779;-86
2022/06/26 04:00:32;;;;;;;2.20;2.10;;;;;;;21.77;51.34;101009.97;4978157;28;96629;-87
2022/06/26 04:03:02;;;;;;;1.93;1.83;;;;;;;21.72;51.53;100999.69;4979906;28;97888;-87
2022/06/26 04:05:27;;;;;;;2.00;1.90;;;;;;;21.75;51.49;101001.38;4974589;28;98952;-86
2022/06/26 04:07:53;;;;;;;2.40;2.30;;;;;;;21.75;51.47;101009.78;4964071;28;97805;-86
2022/06/26 04:10:18;;;;;;;2.10;2.00;;;;;;;21.75;51.45;100997.84;4965269;28;97331;-85
2022/06/26 04:12:44;;;;;;;2.30;1.90;;;;;;;21.74;51.46;101019.50;4962043;28;96806;-85
2022/06/26 04:15:09;;;;;;;2.27;2.17;;;;;;;21.83;51.43;101023.81;4963813;28;100295;-85
2022/06/26 04:17:35;;;;;;;2.10;2.00;;;;;;;21.89;51.58;101016.69;4949183;28;97390;-85
2022/06/26 04:20:00;;;;;;;2.37;2.27;;;;;;;21.86;51.49;101059.84;4956588;28;97357;-85
2022/06/26 04:22:25;;;;;;;2.90;2.17;;;;;;;21.96;51.58;101006.78;4959943;28;109250;-85
2022/06/26 04:24:51;;;;;;;2.27;2.17;;;;;;;21.94;51.88;100998.94;4954024;28;96939;-85
2022/06/26 04:27:16;;;;;;;2.20;1.87;;;;;;;22.01;51.70;101005.84;4963934;28;97059;-86
2022/06/26 04:29:42;;;;;;;1.80;1.70;;;;;;;22.01;51.69;101029.00;4962360;28;96989;-84
2022/06/26 04:32:07;;;;;;;2.57;2.47;;;;;;;22.09;51.78;101009.38;4950947;28;100473;-86
2022/06/26 04:34:33;;;;;;;2.77;2.57;;;;;;;22.12;51.62;101003.41;4955001;28;98591;-85
2022/06/26 04:36:58;;;;;;;2.43;2.10;;;;;;;22.17;51.57;101004.50;4959810;28;98308;-86
2022/06/26 04:39:24;;;;;;;2.60;2.40;;;;;;;22.16;51.56;101019.81;4960957;28;96752;-84
2022/06/26 04:41:49;;;;;;;1.80;1.70;;;;;;;22.29;51.68;101003.53;4963040;28;97878;-85
2022/06/26 04:44:15;;;;;;;2.17;2.07;;;;;;;22.34;51.70;101008.16;4956465;28;97364;-86
2022/06/26 04:46:42;;;;;;;2.33;2.13;;;;;;;22.41;51.60;100997.50;4961050;28;97128;-86
2022/06/26 04:49:08;;;;;;;2.27;1.87;;;;;;;22.47;51.68;100989.63;4961970;28;97054;-85
2022/06/26 04:51:37;;;;;;;2.00;1.90;;;;;;;22.53;51.65;100995.75;4962110;28;98981;-85
2022/06/26 04:54:07;;;;;;;2.03;1.93;;;;;;;22.58;52.01;101015.19;4962908;28;98713;-87
2022/06/26 04:56:33;;;;;;;1.90;1.80;;;;;;;22.68;51.74;101001.31;4953781;28;97000;-86
2022/06/26 04:58:59;;;;;;;2.10;2.00;;;;;;;22.78;51.70;101010.63;4959562;28;96595;-85
2022/06/26 05:01:26;;;;;;;1.90;1.80;;;;;;;22.85;51.68;101009.81;4954804;28;100117;-86
2022/06/26 05:03:51;;;;;;;2.43;2.23;;;;;;;22.90;51.77;101006.81;4956407;28;103694;-85
2022/06/26 05:06:17;;;;;;;2.03;1.93;;;;;;;22.94;51.83;101028.84;4958349;28;96904;-86
2022/06/26 05:08:42;;;;;;;2.13;1.90;;;;;;;23.01;51.87;101025.25;4959074;28;97031;-86
2022/06/26 05:11:07;;;;;;;3.67;2.87;;;;;;;23.06;51.84;101010.28;4955716;28;100287;-85
2022/06/26 05:13:33;;;;;;;1.63;1.53;;;;;;;23.08;51.66;101010.44;4952049;28;100168;-86
2022/06/26 05:15:59;;;;;;;1.93;1.83;;;;;;;23.16;51.74;101011.13;4956045;28;97037;-85
2022/06/26 05:18:24;;;;;;;1.93;1.83;;;;;;;23.27;51.78;101035.19;4955311;28;96938;-85
2022/06/26 05:20:50;;;;;;;1.53;1.43;;;;;;;23.35;51.79;101016.28;4955902;28;98060;-85
2022/06/26 05:23:15;;;;;;;1.70;1.60;;;;;;;23.41;51.69;101036.44;4957876;28;98559;-86
2022/06/26 05:25:42;;;;;;;4.60;2.20;;;;;;;23.52;51.70;101024.75;4973398;28;96922;-85
2022/06/26 05:28:07;;;;;;;1.70;1.47;;;;;;;23.65;51.68;101024.44;4960000;28;97297;-85
2022/06/26 05:30:33;;;;;;;1.70;1.60;;;;;;;23.76;51.70;101027.50;4955653;28;97938;-85
2022/06/26 05:32:58;;;;;;;1.80;1.70;;;;;;;23.88;51.40;101021.41;4961473;28;99433;-85
2022/06/26 05:35:24;;;;;;;2.00;1.90;;;;;;;24.00;51.29;101050.53;4958192;28;97334;-86
2022/06/26 05:37:49;;;;;;;1.80;1.70;;;;;;;24.10;51.22;101028.91;4954669;28;96975;-85
2022/06/26 05:40:14;;;;;;;1.77;1.67;;;;;;;24.23;50.83;101020.13;4954866;28;104942;-85
2022/06/26 05:42:40;;;;;;;1.80;1.70;;;;;;;24.36;50.72;101039.47;4959835;28;98769;-86
2022/06/26 05:45:06;;;;;;;1.90;1.80;;;;;;;24.52;50.42;101030.28;4955142;28;96722;-86
2022/06/26 05:47:31;;;;;;;2.00;1.90;;;;;;;24.61;49.84;101065.44;4962018;28;96778;-86
2022/06/26 05:49:56;;;;;;;2.00;1.90;;;;;;;24.73;49.98;101024.19;4947642;28;104371;-84
2022/06/26 05:52:22;;;;;;;2.50;1.40;;;;;;;24.92;49.67;101051.75;4955194;28;100368;-85
2022/06/26 05:54:48;;;;;;;3.00;1.70;;;;;;;24.96;49.29;101103.50;4952814;28;97642;-83
2022/06/26 05:57:14;;;;;;;1.83;1.73;;;;;;;25.11;48.96;101108.19;4956102;28;97019;-86
2022/06/26 05:59:39;;;;;;;1.63;1.53;;;;;;;25.35;48.51;101076.28;4955427;28;106748;-85
2022/06/26 06:02:05;;;;;;;1.47;1.47;;;;;;;25.47;48.21;101087.78;4960013;28;97045;-85
2022/06/26 06:04:31;;;;;;;1.53;1.43;;;;;;;25.62;48.15;101065.00;4958129;28;97287;-85
2022/06/26 06:06:56;;;;;;;1.73;1.63;;;;;;;25.70;47.75;101060.72;4956992;28;96926;-84
2022/06/26 06:09:23;;;;;;;2.50;1.47;;;;;;;25.79;47.51;101062.09;4955027;28;97829;-83
2022/06/26 06:11:48;;;;;;;1.77;1.60;;;;;;;25.84;47.40;101094.91;4962817;28;96937;-87
2022/06/26 06:14:14;;;;;;;1.77;1.67;;;;;;;25.87;47.31;101074.72;4965668;28;97042;-87
2022/06/26 06:16:39;;;;;;;1.77;1.50;;;;;;;25.95;47.00;101064.03;4962649;28;97250;-86
2022/06/26 06:19:04;;;;;;;1.47;1.37;;;;;;;26.07;46.96;101064.22;4959083;28;99302;-84
2022/06/26 06:21:30;;;;;;;1.50;1.30;;;;;;;26.16;46.79;101097.38;4962010;28;99429;-84
2022/06/26 06:23:55;;;;;;;1.43;1.33;;;;;;;26.26;46.50;101084.00;4952735;28;97326;-85
2022/06/26 06:26:20;;;;;;;1.50;1.40;;;;;;;26.31;46.29;101066.03;4954056;28;96966;-85
2022/06/26 06:28:46;;;;;;;1.37;1.27;;;;;;;26.35;46.03;101077.63;4962586;28;99977;-84
2022/06/26 06:31:11;;;;;;;2.50;1.17;;;;;;;26.45;46.06;101067.06;4957961;28;99383;-84
2022/06/26 06:33:37;;;;;;;1.37;1.27;;;;;;;26.47;45.56;101086.97;4959187;28;97099;-84
2022/06/26 06:36:02;;;;;;;1.40;1.30;;;;;;;26.52;45.60;101080.28;4954739;28;96857;-83
2022/06/26 06:38:28;;;;;;;1.00;0.90;;;;;;;26.66;45.10;101070.03;4960302;28;100115;-87
2022/06/26 06:40:53;;;;;;;1.20;1.10;;;;;;;26.78;45.35;101087.13;4953536;28;97603;-86
2022/06/26 06:43:18;;;;;;;1.33;1.23;;;;;;;26.85;44.93;101082.66;4953680;28;97301;-85
2022/06/26 06:45:44;;;;;;;1.40;1.30;;;;;;;26.89;44.63;101094.28;4959293;28;97034;-84
2022/06/26 06:48:09;;;;;;;1.77;1.30;;;;;;;27.02;44.56;101079.69;4958542;28;106301;-84
2022/06/26 06:50:36;;;;;;;1.63;1.03;;;;;;;27.13;44.34;101121.44;4954587;28;99003;-83
2022/06/26 06:53:02;;;;;;;1.67;1.27;;;;;;;27.23;44.16;101085.41;4958550;28;97026;-85
2022/06/26 06:55:27;;;;;;;1.40;1.30;;;;;;;27.34;43.85;101087.59;4956108;28;97509;-85
2022/06/26 06:57:52;;;;;;;1.13;1.03;;;;;;;27.44;43.79;101105.28;4957907;28;98652;-84
2022/06/26 07:00:18;;;;;;;1.30;1.20;;;;;;;27.53;43.66;101144.09;4961138;28;96675;-85
2022/06/26 07:02:43;;;;;;;1.57;1.27;;;;;;;27.61;43.48;101121.31;4951597;28;97209;-84
2022/06/26 07:05:09;;;;;;;1.60;1.50;;;;;;;27.67;43.06;101119.63;4960559;28;97206;-84
2022/06/26 07:07:35;;;;;;;1.37;1.27;;;;;;;27.65;43.04;101119.50;4959087;28;97771;-85
2022/06/26 07:10:01;;;;;;;1.50;1.40;;;;;;;27.71;43.09;101128.38;4960412;28;100151;-84
2022/06/26 07:12:26;;;;;;;1.73;1.50;;;;;;;27.73;42.98;101128.53;4978627;28;96677;-84
2022/06/26 07:14:53;;;;;;;1.30;1.30;;;;;;;27.77;43.03;101125.22;4978582;28;96582;-87
2022/06/26 07:17:19;;;;;;;1.40;1.27;;;;;;;27.81;42.82;101136.81;4974997;28;100593;-84
2022/06/26 07:19:44;;;;;;;2.00;1.30;;;;;;;27.80;42.72;101121.94;4973856;28;98936;-84
2022/06/26 07:22:10;;;;;;;1.90;1.30;;;;;;;27.85;42.71;101162.56;4957818;28;97188;-85
2022/06/26 07:24:35;;;;;;;1.17;1.03;;;;;;;27.82;42.66;101133.41;4957735;28;103018;-83
2022/06/26 07:27:03;;;;;;;1.63;1.20;;;;;;;27.86;42.58;101147.06;4953263;28;97495;-84
2022/06/26 07:29:28;;;;;;;1.40;1.30;;;;;;;27.86;42.51;101136.50;4959866;28;100703;-84
2022/06/26 07:31:54;;;;;;;1.40;1.30;;;;;;;27.93;42.46;101146.91;4960210;28;97440;-85
2022/06/26 07:34:19;;;;;;;2.77;1.30;;;;;;;27.96;42.53;101171.13;4956297;28;96980;-85
2022/06/26 07:36:50;;;;;;;1.30;1.20;;;;;;;28.07;42.37;101149.97;4960562;28;103450;-85
2022/06/26 07:39:18;;;;;;;1.50;1.40;;;;;;;28.07;42.40;101149.97;4955169;28;100017;-85
2022/06/26 07:41:45;;;;;;;1.60;1.50;;;;;;;28.12;42.72;101146.81;4960821;28;97468;-84
2022/06/26 07:44:11;;;;;;;1.17;1.17;;;;;;;28.09;42.48;101181.97;4956042;28;97107;-86
2022/06/26 07:46:37;;;;;;;1.60;1.50;;;;;;;28.02;42.36;101160.25;4961213;28;99357;-84
2022/06/26 07:49:03;;;;;;;1.63;1.53;;;;;;;28.08;42.44;101155.03;4958536;28;98579;-83
2022/06/26 07:51:29;;;;;;;1.63;1.53;;;;;;;28.08;42.51;101148.63;4951974;28;96836;-84
2022/06/26 07:53:54;;;;;;;1.73;1.57;;;;;;;28.12;42.67;101160.97;4955430;28;97018;-83
2022/06/26 07:56:20;;;;;;;2.80;1.87;;;;;;;28.13;42.58;101156.78;4956050;28;99806;-85
2022/06/26 07:58:46;;;;;;;1.87;1.77;;;;;;;28.20;42.35;101166.41;4957492;28;96731;-84
2022/06/26 08:01:11;;;;;;;2.70;1.87;;;;;;;28.16;42.43;101180.28;4959913;28;97104;-85
2022/06/26 08:03:38;;;;;;;2.37;2.17;;;;;;;28.11;42.33;101178.56;4957358;28;97254;-85
2022/06/26 08:06:03;;;;;;;2.10;2.00;;;;;;;28.15;42.48;101165.38;4957768;28;97336;-86
2022/06/26 08:08:28;;;;;;;2.20;2.10;;;;;;;28.15;42.50;101168.22;4963882;28;96901;-86
2022/06/26 08:10:54;;;;;;;2.37;2.17;;;;;;;28.16;42.60;101171.78;4962575;28;97149;-85
2022/06/26 08:13:20;;;;;;;1.83;1.73;;;;;;;28.16;42.41;101164.06;4955266;28;96819;-84
2022/06/26 08:15:46;;;;;;;1.60;1.50;;;;;;;28.31;42.42;101162.19;4955706;28;100538;-85
2022/06/26 08:18:11;;;;;;;2.50;1.70;;;;;;;28.31;42.08;101165.03;4950246;28;103769;-84
2022/06/26 08:20:37;;;;;;;1.63;1.53;;;;;;;28.40;41.99;101152.88;4961665;28;97016;-85
2022/06/26 08:23:02;;;;;;;1.50;1.50;;;;;;;28.44;41.83;101170.16;4958874;28;97026;-86
2022/06/26 08:25:29;;;;;;;1.67;1.57;;;;;;;28.49;41.60;101157.72;4956710;28;97675;-84
2022/06/26 08:27:54;;;;;;;1.73;1.43;;;;;;;28.51;41.58;101191.84;4960167;28;99315;-86
2022/06/26 08:30:20;;;;;;;1.77;1.67;;;;;;;28.55;41.40;101156.03;4963094;28;97071;-85
2022/06/26 08:32:45;;;;;;;1.90;1.40;;;;;;;28.68;41.65;101171.78;4958500;28;97069;-85
2022/06/26 08:35:13;;;;;;;1.50;1.40;;;;;;;28.75;41.50;101168.72;4957410;28;99044;-84
2022/06/26 08:37:38;;;;;;;2.00;1.40;;;;;;;28.80;41.36;101164.81;4955648;28;97906;-85
2022/06/26 08:40:05;;;;;;;2.10;1.90;;;;;;;28.87;40.97;101203.53;4955978;28;97329;-84
2022/06/26 08:42:31;;;;;;;1.63;1.53;;;;;;;28.93;40.94;101163.50;4962710;28;97554;-84
2022/06/26 08:44:58;;;;;;;1.40;1.30;;;;;;;28.94;40.64;101201.84;4962030;28;100940;-85
2022/06/26 08:47:25;;;;;;;2.37;1.50;;;;;;;29.01;40.75;101185.97;4962173;28;99775;-87
2022/06/26 08:49:51;;;;;;;1.70;1.60;;;;;;;29.01;40.78;101180.31;4965137;28;97086;-85
2022/06/26 08:52:21;;;;;;;1.83;1.73;;;;;;;29.05;40.43;101178.44;4966656;28;96939;-85
2022/06/26 08:54:48;;;;;;;1.80;1.70;;;;;;;29.19;40.45;101179.41;4960061;28;102536;-87
2022/06/26 08:57:14;;;;;;;1.60;1.50;;;;;;;29.34;40.19;101187.44;4958765;28;105570;-84
2022/06/26 08:59:43;;;;;;;1.53;1.43;;;;;;;29.36;40.27;101179.06;4962125;28;97424;-83
2022/06/26 09:02:08;;;;;;;1.70;1.60;;;;;;;29.51;39.98;101181.44;4954947;28;102581;-85
2022/06/26 09:04:38;;;;;;;1.50;1.40;;;;;;;29.62;39.97;101179.97;4934028;28;97839;-85
2022/06/26 09:07:06;;;;;;;1.30;1.20;;;;;;;29.55;39.83;101215.72;4931072;28;97121;-83
2022/06/26 09:09:32;;;;;;;1.60;1.50;;;;;;;29.72;39.89;101188.38;4954384;28;96735;-85
2022/06/26 09:12:02;;;;;;;3.73;1.57;;;;;;;29.88;39.59;101192.25;4935527;28;97527;-84
2022/06/26 09:14:53;;;;;;;1.20;1.10;;;;;;;30.12;38.84;101190.88;4963334;28;98345;-85
2022/06/26 09:17:22;;;;;;;1.00;1.00;;;;;;;30.18;39.01;101200.50;4950438;28;100100;-84
2022/06/26 09:19:51;;;;;;;1.60;1.50;;;;;;;30.29;38.99;101188.38;4935097;28;97146;-85
2022/06/26 09:22:17;;;;;;;1.20;1.10;;;;;;;30.36;38.48;101210.13;4923267;28;97277;-84
2022/06/26 09:24:54;;;;;;;1.33;1.30;;;;;;;30.44;37.74;101214.81;4962085;28;100240;-85
2022/06/26 09:27:21;;;;;;;2.20;1.17;;;;;;;30.56;37.90;101204.16;4957424;28;103012;-86
2022/06/26 09:29:54;;;;;;;0.90;0.90;;;;;;;30.72;37.76;101205.09;4957632;28;97235;-86
2022/06/26 09:32:22;;;;;;;1.17;1.07;;;;;;;30.90;37.84;101214.69;4959291;28;97319;-84
2022/06/26 09:34:49;;;;;;;1.33;1.23;;;;;;;31.05;37.75;101217.00;4951366;28;103098;-85
2022/06/26 09:37:15;;;;;;;1.20;1.10;;;;;;;31.24;37.61;101213.81;4946958;28;97648;-85
2022/06/26 09:39:42;;;;;;;1.40;1.30;;;;;;;31.44;37.36;101211.38;4947301;28;96958;-85
2022/06/26 09:42:17;;;;;;;1.30;1.20;;;;;;;31.58;36.81;101204.38;4955333;28;97589;-86
2022/06/26 09:44:44;;;;;;;1.33;1.20;;;;;;;31.71;36.94;101203.66;4936686;28;103225;-85
2022/06/26 09:47:39;;;;;;;1.17;1.10;;;;;;;31.78;36.86;101208.28;4965408;28;98821;-86
2022/06/26 09:50:07;;;;;;;2.30;1.30;;;;;;;31.93;36.78;101201.25;4922655;28;98964;-86
2022/06/26 09:52:33;;;;;;;1.00;1.00;;;;;;;32.04;36.62;101216.78;4936871;28;100642;-88
2022/06/26 09:55:01;;;;;;;2.00;0.97;;;;;;;32.14;35.84;101205.91;4951223;28;96946;-86
2022/06/26 09:57:28;;;;;;;1.00;1.00;;;;;;;32.14;36.25;101198.13;4934074;28;97608;-87
2022/06/26 09:59:57;;;;;;;1.13;1.13;;;;;;;32.27;36.19;101205.16;4954143;28;96800;-85
2022/06/26 10:08:03;;;;;;;1.23;1.13;;;;;;;32.42;34.86;101216.66;4946936;28;101241;-87
2022/06/26 10:10:31;;;;;;;1.63;1.20;;;;;;;32.30;35.68;101212.47;4916697;28;99465;-84
2022/06/26 10:13:09;;;;;;;1.27;1.17;;;;;;;32.28;35.79;101224.50;4957241;28;96743;-84
2022/06/26 10:15:41;;;;;;;2.00;1.27;;;;;;;32.29;35.64;101216.66;4904532;28;100518;-84
2022/06/26 10:18:09;;;;;;;2.03;1.20;;;;;;;32.40;35.39;101212.97;4915337;28;99556;-83
2022/06/26 10:20:37;;;;;;;1.37;1.27;;;;;;;32.44;35.45;101219.59;4933546;28;97168;-84
2022/06/26 10:23:13;;;;;;;1.20;1.10;;;;;;;32.48;35.40;101205.59;4911852;28;98248;-87
2022/06/26 10:25:49;;;;;;;1.20;1.20;;;;;;;32.67;35.20;101240.72;4921571;28;99557;-86
2022/06/26 10:28:27;;;;;;;1.00;1.00;;;;;;;32.81;35.30;101232.88;4958174;28;101909;-84
2022/06/26 10:30:52;;;;;;;1.20;1.00;;;;;;;32.74;34.98;101259.59;4951777;28;97300;-84
2022/06/26 10:33:18;;;;;;;1.40;1.30;;;;;;;32.65;35.29;101266.28;4958509;28;97069;-85
2022/06/26 10:35:49;;;;;;;1.30;1.20;;;;;;;32.51;35.12;101267.03;4920530;28;99533;-85
2022/06/26 10:38:25;;;;;;;1.20;1.10;;;;;;;32.39;34.91;101240.00;4923002;28;99273;-84
2022/06/26 10:44:07;;;;;;;1.33;1.20;;;;;;;32.05;35.74;101258.09;4886985;28;96892;-86
2022/06/26 10:46:45;;;;;;;2.80;1.33;;;;;;;31.95;35.57;101255.47;4871589;28;99401;-86
2022/06/26 10:49:16;;;;;;;1.50;1.20;;;;;;;31.96;35.63;101254.09;4906934;28;97394;-86
2022/06/26 10:51:43;;;;;;;1.63;1.30;;;;;;;31.96;35.83;101274.03;4882443;28;98742;-87
2022/06/26 10:54:37;;;;;;;1.27;1.20;;;;;;;32.03;35.45;101241.66;4901808;28;98733;-86
2022/06/26 10:57:45;;;;;;;;;;;;;;;;;;;;;
2022/06/26 11:00:13;;;;;;;1.47;1.37;;;;;;;32.27;36.08;101270.69;4915317;28;132617;-87
2022/06/26 11:02:49;;;;;;;1.20;1.10;;;;;;;32.45;35.15;101266.69;4907759;28;96944;-86
2022/06/26 11:05:15;;;;;;;1.50;1.40;;;;;;;32.50;35.75;101236.31;4893254;28;97022;-86
2022/06/26 11:07:49;;;;;;;1.90;1.80;;;;;;;32.43;35.64;101228.81;4884055;28;99936;-88
2022/06/26 11:10:20;;;;;;;1.33;1.20;;;;;;;32.23;35.75;101259.81;4895446;28;98999;-86
2022/06/26 11:12:58;;;;;;;1.60;1.50;;;;;;;32.13;36.23;101242.19;4917308;28;96991;-84
2022/06/26 11:15:34;;;;;;;3.40;1.70;;;;;;;32.08;36.12;101246.22;4874966;28;97935;-86
2022/06/26 11:18:06;;;;;;;1.80;1.70;;;;;;;31.93;36.50;101255.34;4871688;28;99199;-85
2022/06/26 11:20:46;;;;;;;1.60;1.50;;;;;;;31.98;36.45;101236.41;4886194;28;100660;-86
2022/06/26 11:23:34;;;;;;;1.60;1.50;;;;;;;31.88;36.56;101262.19;4881222;28;97420;-83
2022/06/26 11:26:19;;;;;;;1.67;1.57;;;;;;;31.92;36.46;101225.38;4885690;28;97875;-85
2022/06/26 11:28:45;;;;;;;1.70;1.60;;;;;;;32.03;36.48;101244.50;4899200;28;102054;-86
2022/06/26 11:31:46;;;;;;;1.60;1.50;;;;;;;32.10;36.23;101240.63;4905090;28;100180;-84
2022/06/26 11:34:29;;;;;;;1.60;1.50;;;;;;;32.15;36.39;101267.91;4893850;28;97472;-85
2022/06/26 11:37:30;;;;;;;1.47;1.37;;;;;;;32.29;36.09;101234.50;4880600;28;98320;-83
2022/06/26 11:39:58;;;;;;;1.47;1.37;;;;;;;32.45;35.86;101265.94;4936792;22;97074;-84